sensor_id;sensor_type;location;lat;lon;timestamp;P1;durP1;ratioP1;P2;durP2;ratioP2
5135;SDS011;2586;48.710;9.202;2022-08-05T00:02:21;7.80;;;2.87;;
5135;SDS011;2586;48.710;9.202;2022-08-05T00:04:46;8.90;;;2.87;;
5135;SDS011;2586;48.710;9.202;2022-08-05T00:07:12;2.97;;;2.77;;
5135;SDS011;2586;48.710;9.202;2022-08-05T00:09:37;4.80;;;3.03;;
5135;SDS011;2586;48.710;9.202;2022-08-05T00:12:03;5.50;;;3.23;;
5135;SDS011;2586;48.710;9.202;2022-08-05T00:14:29;3.77;;;3.40;;
5135;SDS011;2586;48.710;9.202;2022-08-05T00:16:56;3.50;;;3.10;;
5135;SDS011;2586;48.710;9.202;2022-08-05T00:19:22;8.97;;;3.83;;
5135;SDS011;2586;48.710;9.202;2022-08-05T00:21:48;5.40;;;3.10;;
5135;SDS011;2586;48.710;9.202;2022-08-05T00:24:13;8.13;;;2.87;;
5135;SDS011;2586;48.710;9.202;2022-08-05T00:26:39;6.40;;;3.37;;
5135;SDS011;2586;48.710;9.202;2022-08-05T00:29:04;7.53;;;3.70;;
5135;SDS011;2586;48.710;9.202;2022-08-05T00:31:30;5.00;;;3.00;;
5135;SDS011;2586;48.710;9.202;2022-08-05T00:33:56;3.23;;;3.03;;
5135;SDS011;2586;48.710;9.202;2022-08-05T00:36:21;8.60;;;3.73;;
5135;SDS011;2586;48.710;9.202;2022-08-05T00:38:48;5.13;;;2.97;;
5135;SDS011;2586;48.710;9.202;2022-08-05T00:41:25;3.00;;;2.80;;
5135;SDS011;2586;48.710;9.202;2022-08-05T00:43:58;16.90;;;3.20;;
5135;SDS011;2586;48.710;9.202;2022-08-05T00:46:24;11.47;;;3.03;;
5135;SDS011;2586;48.710;9.202;2022-08-05T00:48:50;4.53;;;3.57;;
5135;SDS011;2586;48.710;9.202;2022-08-05T00:51:16;5.20;;;3.40;;
5135;SDS011;2586;48.710;9.202;2022-08-05T00:53:42;6.30;;;4.27;;
5135;SDS011;2586;48.710;9.202;2022-08-05T00:56:08;5.93;;;3.27;;
5135;SDS011;2586;48.710;9.202;2022-08-05T00:58:34;8.30;;;3.47;;
5135;SDS011;2586;48.710;9.202;2022-08-05T01:01:00;3.00;;;2.80;;
5135;SDS011;2586;48.710;9.202;2022-08-05T01:03:25;4.20;;;3.80;;
5135;SDS011;2586;48.710;9.202;2022-08-05T01:05:53;9.80;;;3.23;;
5135;SDS011;2586;48.710;9.202;2022-08-05T01:08:19;8.13;;;3.87;;
5135;SDS011;2586;48.710;9.202;2022-08-05T01:10:53;3.97;;;2.80;;
5135;SDS011;2586;48.710;9.202;2022-08-05T01:13:32;5.37;;;2.07;;
5135;SDS011;2586;48.710;9.202;2022-08-05T01:16:05;5.27;;;1.93;;
5135;SDS011;2586;48.710;9.202;2022-08-05T01:18:42;2.77;;;2.53;;
5135;SDS011;2586;48.710;9.202;2022-08-05T01:21:15;2.93;;;2.40;;
5135;SDS011;2586;48.710;9.202;2022-08-05T01:29:28;12.40;;;2.10;;
5135;SDS011;2586;48.710;9.202;2022-08-05T01:32:01;4.07;;;1.80;;
5135;SDS011;2586;48.710;9.202;2022-08-05T01:34:31;12.27;;;2.63;;
5135;SDS011;2586;48.710;9.202;2022-08-05T01:37:18;9.20;;;2.53;;
5135;SDS011;2586;48.710;9.202;2022-08-05T01:39:50;8.10;;;2.53;;
5135;SDS011;2586;48.710;9.202;2022-08-05T01:42:19;6.70;;;3.03;;
5135;SDS011;2586;48.710;9.202;2022-08-05T01:44:47;7.13;;;2.00;;
5135;SDS011;2586;48.710;9.202;2022-08-05T01:47:17;12.83;;;2.00;;
5135;SDS011;2586;48.710;9.202;2022-08-05T01:49:45;6.87;;;2.20;;
5135;SDS011;2586;48.710;9.202;2022-08-05T01:52:14;2.30;;;1.87;;
5135;SDS011;2586;48.710;9.202;2022-08-05T01:54:44;9.23;;;1.93;;
5135;SDS011;2586;48.710;9.202;2022-08-05T01:57:15;6.30;;;2.43;;
5135;SDS011;2586;48.710;9.202;2022-08-05T01:59:44;7.93;;;2.10;;
5135;SDS011;2586;48.710;9.202;2022-08-05T02:02:12;8.00;;;2.67;;
5135;SDS011;2586;48.710;9.202;2022-08-05T02:04:38;8.80;;;2.70;;
5135;SDS011;2586;48.710;9.202;2022-08-05T02:07:06;8.43;;;3.30;;
5135;SDS011;2586;48.710;9.202;2022-08-05T02:09:32;3.70;;;2.07;;
5135;SDS011;2586;48.710;9.202;2022-08-05T02:15:33;4.10;;;2.00;;
5135;SDS011;2586;48.710;9.202;2022-08-05T02:17:33;7.10;;;2.27;;
5135;SDS011;2586;48.710;9.202;2022-08-05T02:20:05;16.73;;;2.10;;
5135;SDS011;2586;48.710;9.202;2022-08-05T02:22:35;15.97;;;2.37;;
5135;SDS011;2586;48.710;9.202;2022-08-05T02:25:11;7.27;;;2.23;;
5135;SDS011;2586;48.710;9.202;2022-08-05T02:27:41;14.97;;;3.00;;
5135;SDS011;2586;48.710;9.202;2022-08-05T02:30:13;11.73;;;2.13;;
5135;SDS011;2586;48.710;9.202;2022-08-05T02:32:44;4.70;;;1.90;;
5135;SDS011;2586;48.710;9.202;2022-08-05T02:35:16;4.70;;;3.00;;
5135;SDS011;2586;48.710;9.202;2022-08-05T02:37:45;6.97;;;2.13;;
5135;SDS011;2586;48.710;9.202;2022-08-05T02:40:11;16.40;;;2.80;;
5135;SDS011;2586;48.710;9.202;2022-08-05T02:42:38;8.80;;;2.30;;
5135;SDS011;2586;48.710;9.202;2022-08-05T02:45:05;5.70;;;2.07;;
5135;SDS011;2586;48.710;9.202;2022-08-05T02:47:33;11.70;;;2.30;;
5135;SDS011;2586;48.710;9.202;2022-08-05T02:50:00;10.50;;;2.50;;
5135;SDS011;2586;48.710;9.202;2022-08-05T02:52:27;5.40;;;2.30;;
5135;SDS011;2586;48.710;9.202;2022-08-05T02:54:53;9.67;;;2.43;;
5135;SDS011;2586;48.710;9.202;2022-08-05T02:57:21;9.37;;;2.43;;
5135;SDS011;2586;48.710;9.202;2022-08-05T02:59:48;13.80;;;2.40;;
5135;SDS011;2586;48.710;9.202;2022-08-05T03:02:16;8.63;;;2.70;;
5135;SDS011;2586;48.710;9.202;2022-08-05T03:04:44;8.33;;;2.60;;
5135;SDS011;2586;48.710;9.202;2022-08-05T03:07:10;11.40;;;2.60;;
5135;SDS011;2586;48.710;9.202;2022-08-05T03:09:37;4.60;;;2.60;;
5135;SDS011;2586;48.710;9.202;2022-08-05T03:12:06;17.03;;;3.10;;
5135;SDS011;2586;48.710;9.202;2022-08-05T03:14:31;15.13;;;3.23;;
5135;SDS011;2586;48.710;9.202;2022-08-05T03:16:57;20.23;;;2.70;;
5135;SDS011;2586;48.710;9.202;2022-08-05T03:19:23;11.00;;;2.13;;
5135;SDS011;2586;48.710;9.202;2022-08-05T03:21:49;11.37;;;2.53;;
5135;SDS011;2586;48.710;9.202;2022-08-05T03:24:15;12.90;;;2.90;;
5135;SDS011;2586;48.710;9.202;2022-08-05T03:26:42;19.30;;;2.60;;
5135;SDS011;2586;48.710;9.202;2022-08-05T03:29:07;7.00;;;2.53;;
5135;SDS011;2586;48.710;9.202;2022-08-05T03:31:33;7.40;;;2.90;;
5135;SDS011;2586;48.710;9.202;2022-08-05T03:33:59;9.90;;;2.80;;
5135;SDS011;2586;48.710;9.202;2022-08-05T03:36:24;21.73;;;2.93;;
5135;SDS011;2586;48.710;9.202;2022-08-05T03:38:50;16.40;;;2.93;;
5135;SDS011;2586;48.710;9.202;2022-08-05T03:41:16;10.27;;;2.40;;
5135;SDS011;2586;48.710;9.202;2022-08-05T03:43:42;10.50;;;2.33;;
5135;SDS011;2586;48.710;9.202;2022-08-05T03:46:07;4.13;;;2.47;;
5135;SDS011;2586;48.710;9.202;2022-08-05T03:48:33;6.13;;;2.70;;
5135;SDS011;2586;48.710;9.202;2022-08-05T03:56:41;6.97;;;2.80;;
5135;SDS011;2586;48.710;9.202;2022-08-05T03:59:20;6.40;;;2.70;;
5135;SDS011;2586;48.710;9.202;2022-08-05T04:01:50;14.30;;;3.03;;
5135;SDS011;2586;48.710;9.202;2022-08-05T04:04:18;4.83;;;2.93;;
5135;SDS011;2586;48.710;9.202;2022-08-05T04:06:45;2.90;;;2.53;;
5135;SDS011;2586;48.710;9.202;2022-08-05T04:09:11;6.50;;;3.20;;
5135;SDS011;2586;48.710;9.202;2022-08-05T04:11:38;10.83;;;2.70;;
5135;SDS011;2586;48.710;9.202;2022-08-05T04:14:04;4.87;;;2.50;;
5135;SDS011;2586;48.710;9.202;2022-08-05T04:16:31;5.83;;;3.00;;
5135;SDS011;2586;48.710;9.202;2022-08-05T04:18:57;9.97;;;3.30;;
5135;SDS011;2586;48.710;9.202;2022-08-05T04:21:23;12.80;;;3.20;;
5135;SDS011;2586;48.710;9.202;2022-08-05T04:23:48;12.77;;;2.87;;
5135;SDS011;2586;48.710;9.202;2022-08-05T04:26:14;11.37;;;3.70;;
5135;SDS011;2586;48.710;9.202;2022-08-05T04:28:40;20.90;;;3.50;;
5135;SDS011;2586;48.710;9.202;2022-08-05T04:31:05;16.73;;;3.83;;
5135;SDS011;2586;48.710;9.202;2022-08-05T04:33:31;17.37;;;3.70;;
5135;SDS011;2586;48.710;9.202;2022-08-05T04:35:57;12.73;;;3.63;;
5135;SDS011;2586;48.710;9.202;2022-08-05T04:38:22;22.23;;;3.90;;
5135;SDS011;2586;48.710;9.202;2022-08-05T04:40:48;6.73;;;3.10;;
5135;SDS011;2586;48.710;9.202;2022-08-05T04:43:14;5.03;;;2.80;;
5135;SDS011;2586;48.710;9.202;2022-08-05T04:45:39;18.77;;;3.57;;
5135;SDS011;2586;48.710;9.202;2022-08-05T04:48:06;5.93;;;3.13;;
5135;SDS011;2586;48.710;9.202;2022-08-05T04:53:06;14.67;;;2.87;;
5135;SDS011;2586;48.710;9.202;2022-08-05T04:55:33;9.07;;;3.10;;
5135;SDS011;2586;48.710;9.202;2022-08-05T04:57:59;14.83;;;2.93;;
5135;SDS011;2586;48.710;9.202;2022-08-05T05:00:25;9.03;;;2.90;;
5135;SDS011;2586;48.710;9.202;2022-08-05T05:02:51;6.53;;;2.90;;
5135;SDS011;2586;48.710;9.202;2022-08-05T05:05:16;7.37;;;2.90;;
5135;SDS011;2586;48.710;9.202;2022-08-05T05:07:42;6.60;;;2.60;;
5135;SDS011;2586;48.710;9.202;2022-08-05T05:10:08;5.50;;;3.43;;
5135;SDS011;2586;48.710;9.202;2022-08-05T05:12:33;6.50;;;2.90;;
5135;SDS011;2586;48.710;9.202;2022-08-05T05:14:59;5.13;;;3.20;;
5135;SDS011;2586;48.710;9.202;2022-08-05T05:17:24;21.83;;;2.70;;
5135;SDS011;2586;48.710;9.202;2022-08-05T05:19:53;7.70;;;3.67;;
5135;SDS011;2586;48.710;9.202;2022-08-05T05:22:19;11.30;;;2.93;;
5135;SDS011;2586;48.710;9.202;2022-08-05T05:24:45;6.10;;;3.40;;
5135;SDS011;2586;48.710;9.202;2022-08-05T05:27:10;7.73;;;2.77;;
5135;SDS011;2586;48.710;9.202;2022-08-05T05:29:36;6.87;;;3.33;;
5135;SDS011;2586;48.710;9.202;2022-08-05T05:32:01;7.43;;;2.93;;
5135;SDS011;2586;48.710;9.202;2022-08-05T05:34:27;7.87;;;3.30;;
5135;SDS011;2586;48.710;9.202;2022-08-05T05:36:52;8.37;;;3.57;;
5135;SDS011;2586;48.710;9.202;2022-08-05T05:39:18;16.07;;;3.30;;
5135;SDS011;2586;48.710;9.202;2022-08-05T05:41:43;8.33;;;2.67;;
5135;SDS011;2586;48.710;9.202;2022-08-05T05:44:09;10.13;;;3.40;;
5135;SDS011;2586;48.710;9.202;2022-08-05T05:46:34;9.90;;;3.53;;
5135;SDS011;2586;48.710;9.202;2022-08-05T05:49:00;9.00;;;2.90;;
5135;SDS011;2586;48.710;9.202;2022-08-05T05:51:26;11.83;;;2.90;;
5135;SDS011;2586;48.710;9.202;2022-08-05T05:53:52;15.30;;;3.53;;
5135;SDS011;2586;48.710;9.202;2022-08-05T05:56:19;16.80;;;3.27;;
5135;SDS011;2586;48.710;9.202;2022-08-05T05:58:45;7.90;;;3.00;;
5135;SDS011;2586;48.710;9.202;2022-08-05T06:01:12;22.80;;;3.80;;
5135;SDS011;2586;48.710;9.202;2022-08-05T06:03:41;5.80;;;3.50;;
5135;SDS011;2586;48.710;9.202;2022-08-05T06:06:07;6.47;;;3.30;;
5135;SDS011;2586;48.710;9.202;2022-08-05T06:08:32;4.63;;;3.27;;
5135;SDS011;2586;48.710;9.202;2022-08-05T06:10:58;9.73;;;3.33;;
5135;SDS011;2586;48.710;9.202;2022-08-05T06:13:24;12.53;;;3.47;;
5135;SDS011;2586;48.710;9.202;2022-08-05T06:15:50;17.07;;;2.60;;
5135;SDS011;2586;48.710;9.202;2022-08-05T06:18:15;6.07;;;2.90;;
5135;SDS011;2586;48.710;9.202;2022-08-05T06:20:41;5.47;;;3.10;;
5135;SDS011;2586;48.710;9.202;2022-08-05T06:23:06;9.47;;;3.53;;
5135;SDS011;2586;48.710;9.202;2022-08-05T06:25:32;10.53;;;2.90;;
5135;SDS011;2586;48.710;9.202;2022-08-05T06:27:58;6.67;;;3.10;;
5135;SDS011;2586;48.710;9.202;2022-08-05T06:30:23;2.97;;;2.70;;
5135;SDS011;2586;48.710;9.202;2022-08-05T06:32:50;9.03;;;2.80;;
5135;SDS011;2586;48.710;9.202;2022-08-05T06:35:17;12.63;;;2.83;;
5135;SDS011;2586;48.710;9.202;2022-08-05T06:37:43;4.53;;;2.70;;
5135;SDS011;2586;48.710;9.202;2022-08-05T06:40:08;14.00;;;2.60;;
5135;SDS011;2586;48.710;9.202;2022-08-05T06:42:35;17.80;;;3.10;;
5135;SDS011;2586;48.710;9.202;2022-08-05T06:45:01;5.00;;;2.70;;
5135;SDS011;2586;48.710;9.202;2022-08-05T06:47:26;9.53;;;3.57;;
5135;SDS011;2586;48.710;9.202;2022-08-05T06:49:52;6.33;;;3.23;;
5135;SDS011;2586;48.710;9.202;2022-08-05T06:52:17;9.40;;;2.57;;
5135;SDS011;2586;48.710;9.202;2022-08-05T06:54:43;10.23;;;2.60;;
5135;SDS011;2586;48.710;9.202;2022-08-05T06:57:09;3.87;;;2.17;;
5135;SDS011;2586;48.710;9.202;2022-08-05T06:59:38;4.93;;;2.57;;
5135;SDS011;2586;48.710;9.202;2022-08-05T07:02:04;6.93;;;2.90;;
5135;SDS011;2586;48.710;9.202;2022-08-05T07:04:29;5.90;;;2.50;;
5135;SDS011;2586;48.710;9.202;2022-08-05T07:06:55;5.00;;;2.53;;
5135;SDS011;2586;48.710;9.202;2022-08-05T07:09:20;3.67;;;1.70;;
5135;SDS011;2586;48.710;9.202;2022-08-05T07:11:46;7.43;;;2.40;;
5135;SDS011;2586;48.710;9.202;2022-08-05T07:14:12;3.80;;;2.47;;
5135;SDS011;2586;48.710;9.202;2022-08-05T07:16:59;3.77;;;2.40;;
5135;SDS011;2586;48.710;9.202;2022-08-05T07:19:25;4.47;;;2.87;;
5135;SDS011;2586;48.710;9.202;2022-08-05T07:21:52;5.93;;;2.23;;
5135;SDS011;2586;48.710;9.202;2022-08-05T07:24:19;2.23;;;1.90;;
5135;SDS011;2586;48.710;9.202;2022-08-05T07:26:45;2.67;;;2.30;;
5135;SDS011;2586;48.710;9.202;2022-08-05T07:29:10;4.10;;;2.23;;
5135;SDS011;2586;48.710;9.202;2022-08-05T07:31:36;4.00;;;2.23;;
5135;SDS011;2586;48.710;9.202;2022-08-05T07:34:03;2.80;;;2.27;;
5135;SDS011;2586;48.710;9.202;2022-08-05T07:36:29;4.00;;;2.40;;
5135;SDS011;2586;48.710;9.202;2022-08-05T07:38:57;2.40;;;2.20;;
5135;SDS011;2586;48.710;9.202;2022-08-05T07:41:26;3.20;;;1.70;;
5135;SDS011;2586;48.710;9.202;2022-08-05T07:43:53;1.80;;;1.70;;
5135;SDS011;2586;48.710;9.202;2022-08-05T07:46:19;4.30;;;2.30;;
5135;SDS011;2586;48.710;9.202;2022-08-05T07:48:45;4.33;;;1.90;;
5135;SDS011;2586;48.710;9.202;2022-08-05T07:51:11;2.70;;;2.50;;
5135;SDS011;2586;48.710;9.202;2022-08-05T07:53:37;7.33;;;1.63;;
5135;SDS011;2586;48.710;9.202;2022-08-05T07:56:03;6.37;;;2.20;;
5135;SDS011;2586;48.710;9.202;2022-08-05T07:58:29;6.10;;;1.60;;
5135;SDS011;2586;48.710;9.202;2022-08-05T08:00:54;5.63;;;2.33;;
5135;SDS011;2586;48.710;9.202;2022-08-05T08:03:20;4.50;;;2.03;;
5135;SDS011;2586;48.710;9.202;2022-08-05T08:05:45;16.60;;;2.07;;
5135;SDS011;2586;48.710;9.202;2022-08-05T08:08:15;4.70;;;1.80;;
5135;SDS011;2586;48.710;9.202;2022-08-05T08:10:41;12.70;;;2.80;;
5135;SDS011;2586;48.710;9.202;2022-08-05T08:13:06;2.80;;;1.80;;
5135;SDS011;2586;48.710;9.202;2022-08-05T08:15:32;4.50;;;1.87;;
5135;SDS011;2586;48.710;9.202;2022-08-05T08:17:58;1.33;;;1.33;;
5135;SDS011;2586;48.710;9.202;2022-08-05T08:20:24;3.03;;;1.50;;
5135;SDS011;2586;48.710;9.202;2022-08-05T08:22:51;4.60;;;1.50;;
5135;SDS011;2586;48.710;9.202;2022-08-05T08:25:16;2.57;;;1.20;;
5135;SDS011;2586;48.710;9.202;2022-08-05T08:27:43;2.47;;;1.30;;
5135;SDS011;2586;48.710;9.202;2022-08-05T08:30:09;1.57;;;1.47;;
5135;SDS011;2586;48.710;9.202;2022-08-05T08:32:38;2.67;;;1.40;;
5135;SDS011;2586;48.710;9.202;2022-08-05T08:35:04;2.60;;;1.40;;
5135;SDS011;2586;48.710;9.202;2022-08-05T08:37:31;1.63;;;1.20;;
5135;SDS011;2586;48.710;9.202;2022-08-05T08:39:56;2.40;;;1.10;;
5135;SDS011;2586;48.710;9.202;2022-08-05T08:42:22;3.23;;;2.20;;
5135;SDS011;2586;48.710;9.202;2022-08-05T08:44:48;1.97;;;1.73;;
5135;SDS011;2586;48.710;9.202;2022-08-05T08:47:17;3.27;;;1.60;;
5135;SDS011;2586;48.710;9.202;2022-08-05T08:49:46;1.80;;;1.70;;
5135;SDS011;2586;48.710;9.202;2022-08-05T08:52:16;10.57;;;1.30;;
5135;SDS011;2586;48.710;9.202;2022-08-05T08:54:46;1.60;;;1.50;;
5135;SDS011;2586;48.710;9.202;2022-08-05T08:57:15;4.90;;;1.50;;
5135;SDS011;2586;48.710;9.202;2022-08-05T08:59:41;3.87;;;1.80;;
5135;SDS011;2586;48.710;9.202;2022-08-05T09:02:06;2.10;;;1.70;;
5135;SDS011;2586;48.710;9.202;2022-08-05T09:04:36;6.83;;;1.70;;
5135;SDS011;2586;48.710;9.202;2022-08-05T09:07:05;3.77;;;1.40;;
5135;SDS011;2586;48.710;9.202;2022-08-05T09:09:32;5.23;;;1.70;;
5135;SDS011;2586;48.710;9.202;2022-08-05T09:11:58;1.53;;;1.40;;
5135;SDS011;2586;48.710;9.202;2022-08-05T09:14:24;2.17;;;1.40;;
5135;SDS011;2586;48.710;9.202;2022-08-05T09:16:50;2.80;;;1.67;;
5135;SDS011;2586;48.710;9.202;2022-08-05T09:19:16;4.93;;;1.60;;
5135;SDS011;2586;48.710;9.202;2022-08-05T09:21:42;4.87;;;1.60;;
5135;SDS011;2586;48.710;9.202;2022-08-05T09:24:08;2.50;;;1.70;;
5135;SDS011;2586;48.710;9.202;2022-08-05T09:26:34;4.83;;;1.90;;
5135;SDS011;2586;48.710;9.202;2022-08-05T09:29:01;2.00;;;1.43;;
5135;SDS011;2586;48.710;9.202;2022-08-05T09:31:29;3.10;;;1.80;;
5135;SDS011;2586;48.710;9.202;2022-08-05T09:33:57;1.70;;;1.10;;
5135;SDS011;2586;48.710;9.202;2022-08-05T09:39:09;1.73;;;1.43;;
5135;SDS011;2586;48.710;9.202;2022-08-05T09:44:34;2.00;;;1.73;;
5135;SDS011;2586;48.710;9.202;2022-08-05T09:47:08;5.97;;;1.80;;
5135;SDS011;2586;48.710;9.202;2022-08-05T09:49:34;2.00;;;1.70;;
5135;SDS011;2586;48.710;9.202;2022-08-05T09:52:19;6.87;;;1.50;;
5135;SDS011;2586;48.710;9.202;2022-08-05T09:54:51;6.30;;;1.50;;
5135;SDS011;2586;48.710;9.202;2022-08-05T09:57:30;1.93;;;1.67;;
5135;SDS011;2586;48.710;9.202;2022-08-05T09:59:59;1.30;;;1.20;;
5135;SDS011;2586;48.710;9.202;2022-08-05T10:02:32;2.10;;;1.60;;
5135;SDS011;2586;48.710;9.202;2022-08-05T10:05:03;4.33;;;1.60;;
5135;SDS011;2586;48.710;9.202;2022-08-05T10:07:47;1.63;;;1.50;;
5135;SDS011;2586;48.710;9.202;2022-08-05T10:10:16;3.07;;;1.60;;
5135;SDS011;2586;48.710;9.202;2022-08-05T10:12:45;3.13;;;1.30;;
5135;SDS011;2586;48.710;9.202;2022-08-05T10:15:25;2.50;;;1.70;;
5135;SDS011;2586;48.710;9.202;2022-08-05T10:20:42;4.03;;;1.50;;
5135;SDS011;2586;48.710;9.202;2022-08-05T10:23:13;3.27;;;2.23;;
5135;SDS011;2586;48.710;9.202;2022-08-05T10:25:42;1.60;;;1.50;;
5135;SDS011;2586;48.710;9.202;2022-08-05T10:28:08;1.80;;;1.70;;
5135;SDS011;2586;48.710;9.202;2022-08-05T10:30:34;1.50;;;1.40;;
5135;SDS011;2586;48.710;9.202;2022-08-05T10:33:01;2.97;;;1.20;;
5135;SDS011;2586;48.710;9.202;2022-08-05T10:35:28;2.30;;;1.60;;
5135;SDS011;2586;48.710;9.202;2022-08-05T10:37:54;1.87;;;1.37;;
5135;SDS011;2586;48.710;9.202;2022-08-05T10:40:24;2.90;;;1.57;;
5135;SDS011;2586;48.710;9.202;2022-08-05T10:43:03;3.03;;;1.53;;
5135;SDS011;2586;48.710;9.202;2022-08-05T10:45:36;2.80;;;1.53;;
5135;SDS011;2586;48.710;9.202;2022-08-05T10:48:47;2.60;;;1.47;;
5135;SDS011;2586;48.710;9.202;2022-08-05T10:50:58;5.70;;;1.43;;
5135;SDS011;2586;48.710;9.202;2022-08-05T10:53:38;2.60;;;1.50;;
5135;SDS011;2586;48.710;9.202;2022-08-05T10:56:19;3.37;;;1.80;;
5135;SDS011;2586;48.710;9.202;2022-08-05T10:58:46;2.20;;;1.70;;
5135;SDS011;2586;48.710;9.202;2022-08-05T11:01:12;3.00;;;1.67;;
5135;SDS011;2586;48.710;9.202;2022-08-05T11:06:26;4.13;;;1.57;;
5135;SDS011;2586;48.710;9.202;2022-08-05T11:09:11;3.00;;;1.77;;
5135;SDS011;2586;48.710;9.202;2022-08-05T11:11:40;12.13;;;2.50;;
5135;SDS011;2586;48.710;9.202;2022-08-05T11:14:08;6.90;;;1.77;;
5135;SDS011;2586;48.710;9.202;2022-08-05T11:16:36;9.33;;;2.53;;
5135;SDS011;2586;48.710;9.202;2022-08-05T11:21:50;1.80;;;1.70;;
5135;SDS011;2586;48.710;9.202;2022-08-05T11:24:17;1.60;;;1.50;;
5135;SDS011;2586;48.710;9.202;2022-08-05T11:26:44;6.33;;;2.30;;
5135;SDS011;2586;48.710;9.202;2022-08-05T11:29:33;2.93;;;1.60;;
5135;SDS011;2586;48.710;9.202;2022-08-05T11:32:24;3.53;;;1.77;;
5135;SDS011;2586;48.710;9.202;2022-08-05T11:34:51;9.33;;;1.90;;
5135;SDS011;2586;48.710;9.202;2022-08-05T11:40:05;4.40;;;2.03;;
5135;SDS011;2586;48.710;9.202;2022-08-05T11:42:32;4.93;;;1.77;;
5135;SDS011;2586;48.710;9.202;2022-08-05T11:45:01;2.90;;;1.53;;
5135;SDS011;2586;48.710;9.202;2022-08-05T11:47:29;12.30;;;2.47;;
5135;SDS011;2586;48.710;9.202;2022-08-05T11:49:56;3.60;;;1.90;;
5135;SDS011;2586;48.710;9.202;2022-08-05T11:52:24;3.57;;;2.03;;
5135;SDS011;2586;48.710;9.202;2022-08-05T11:54:51;1.80;;;1.70;;
5135;SDS011;2586;48.710;9.202;2022-08-05T11:57:17;7.97;;;2.30;;
5135;SDS011;2586;48.710;9.202;2022-08-05T11:59:43;3.50;;;2.17;;
5135;SDS011;2586;48.710;9.202;2022-08-05T12:02:09;5.23;;;2.03;;
5135;SDS011;2586;48.710;9.202;2022-08-05T12:07:07;4.60;;;2.00;;
5135;SDS011;2586;48.710;9.202;2022-08-05T12:09:35;4.97;;;1.67;;
5135;SDS011;2586;48.710;9.202;2022-08-05T12:12:03;3.40;;;2.37;;
5135;SDS011;2586;48.710;9.202;2022-08-05T12:14:36;1.70;;;1.60;;
5135;SDS011;2586;48.710;9.202;2022-08-05T12:17:13;5.73;;;1.73;;
5135;SDS011;2586;48.710;9.202;2022-08-05T12:19:49;1.50;;;1.40;;
5135;SDS011;2586;48.710;9.202;2022-08-05T12:22:17;1.90;;;1.73;;
5135;SDS011;2586;48.710;9.202;2022-08-05T12:24:45;3.93;;;2.03;;
5135;SDS011;2586;48.710;9.202;2022-08-05T12:27:18;1.80;;;1.40;;
5135;SDS011;2586;48.710;9.202;2022-08-05T12:29:45;2.13;;;1.30;;
5135;SDS011;2586;48.710;9.202;2022-08-05T12:32:11;3.83;;;1.83;;
5135;SDS011;2586;48.710;9.202;2022-08-05T12:34:36;2.90;;;1.73;;
5135;SDS011;2586;48.710;9.202;2022-08-05T12:37:07;4.30;;;1.40;;
5135;SDS011;2586;48.710;9.202;2022-08-05T12:39:37;1.10;;;1.00;;
5135;SDS011;2586;48.710;9.202;2022-08-05T12:42:08;1.90;;;1.80;;
5135;SDS011;2586;48.710;9.202;2022-08-05T12:44:35;1.40;;;1.30;;
5135;SDS011;2586;48.710;9.202;2022-08-05T12:47:01;1.77;;;1.67;;
5135;SDS011;2586;48.710;9.202;2022-08-05T12:49:37;1.90;;;1.80;;
5135;SDS011;2586;48.710;9.202;2022-08-05T12:52:04;3.03;;;1.97;;
5135;SDS011;2586;48.710;9.202;2022-08-05T12:54:37;2.20;;;1.70;;
5135;SDS011;2586;48.710;9.202;2022-08-05T12:57:06;5.73;;;1.83;;
5135;SDS011;2586;48.710;9.202;2022-08-05T12:59:33;3.30;;;1.87;;
5135;SDS011;2586;48.710;9.202;2022-08-05T13:02:15;1.90;;;1.80;;
5135;SDS011;2586;48.710;9.202;2022-08-05T13:04:44;3.57;;;2.03;;
5135;SDS011;2586;48.710;9.202;2022-08-05T13:07:14;1.77;;;1.67;;
5135;SDS011;2586;48.710;9.202;2022-08-05T13:09:42;4.93;;;2.13;;
5135;SDS011;2586;48.710;9.202;2022-08-05T13:12:16;3.57;;;1.80;;
5135;SDS011;2586;48.710;9.202;2022-08-05T13:14:47;2.00;;;1.70;;
5135;SDS011;2586;48.710;9.202;2022-08-05T13:17:21;1.60;;;1.50;;
5135;SDS011;2586;48.710;9.202;2022-08-05T13:20:02;1.67;;;1.57;;
5135;SDS011;2586;48.710;9.202;2022-08-05T13:22:36;8.10;;;2.67;;
5135;SDS011;2586;48.710;9.202;2022-08-05T13:25:13;6.07;;;1.57;;
5135;SDS011;2586;48.710;9.202;2022-08-05T13:27:40;4.20;;;1.90;;
5135;SDS011;2586;48.710;9.202;2022-08-05T13:30:10;3.63;;;1.80;;
5135;SDS011;2586;48.710;9.202;2022-08-05T13:32:37;1.77;;;1.63;;
5135;SDS011;2586;48.710;9.202;2022-08-05T13:35:04;3.47;;;1.40;;
5135;SDS011;2586;48.710;9.202;2022-08-05T13:37:30;1.87;;;1.77;;
5135;SDS011;2586;48.710;9.202;2022-08-05T13:39:56;4.07;;;2.20;;
5135;SDS011;2586;48.710;9.202;2022-08-05T13:42:22;3.27;;;1.63;;
5135;SDS011;2586;48.710;9.202;2022-08-05T13:44:52;2.03;;;1.93;;
5135;SDS011;2586;48.710;9.202;2022-08-05T13:47:19;5.43;;;1.60;;
5135;SDS011;2586;48.710;9.202;2022-08-05T13:49:45;2.57;;;1.33;;
5135;SDS011;2586;48.710;9.202;2022-08-05T13:52:12;2.97;;;2.00;;
5135;SDS011;2586;48.710;9.202;2022-08-05T13:54:39;2.10;;;1.90;;
5135;SDS011;2586;48.710;9.202;2022-08-05T13:57:05;1.60;;;1.50;;
5135;SDS011;2586;48.710;9.202;2022-08-05T13:59:32;2.20;;;1.53;;
5135;SDS011;2586;48.710;9.202;2022-08-05T14:01:58;9.73;;;1.97;;
5135;SDS011;2586;48.710;9.202;2022-08-05T14:07:38;4.97;;;2.17;;
5135;SDS011;2586;48.710;9.202;2022-08-05T14:10:15;5.07;;;1.47;;
5135;SDS011;2586;48.710;9.202;2022-08-05T14:12:42;4.00;;;1.50;;
5135;SDS011;2586;48.710;9.202;2022-08-05T14:15:09;3.97;;;1.97;;
5135;SDS011;2586;48.710;9.202;2022-08-05T14:17:35;4.77;;;1.77;;
5135;SDS011;2586;48.710;9.202;2022-08-05T14:20:02;1.80;;;1.70;;
5135;SDS011;2586;48.710;9.202;2022-08-05T14:22:29;3.37;;;1.90;;
5135;SDS011;2586;48.710;9.202;2022-08-05T14:24:54;1.90;;;1.80;;
5135;SDS011;2586;48.710;9.202;2022-08-05T14:27:20;1.50;;;1.40;;
5135;SDS011;2586;48.710;9.202;2022-08-05T14:29:45;4.03;;;1.77;;
5135;SDS011;2586;48.710;9.202;2022-08-05T14:32:11;2.40;;;1.67;;
5135;SDS011;2586;48.710;9.202;2022-08-05T14:34:37;1.50;;;1.40;;
5135;SDS011;2586;48.710;9.202;2022-08-05T14:37:04;3.83;;;2.27;;
5135;SDS011;2586;48.710;9.202;2022-08-05T14:39:30;3.90;;;1.87;;
5135;SDS011;2586;48.710;9.202;2022-08-05T14:41:56;2.80;;;2.07;;
5135;SDS011;2586;48.710;9.202;2022-08-05T14:44:22;2.73;;;2.10;;
5135;SDS011;2586;48.710;9.202;2022-08-05T14:46:47;4.40;;;1.83;;
5135;SDS011;2586;48.710;9.202;2022-08-05T14:49:13;2.97;;;2.10;;
5135;SDS011;2586;48.710;9.202;2022-08-05T14:51:39;2.33;;;2.10;;
5135;SDS011;2586;48.710;9.202;2022-08-05T14:54:05;5.40;;;1.47;;
5135;SDS011;2586;48.710;9.202;2022-08-05T14:56:31;4.20;;;1.93;;
5135;SDS011;2586;48.710;9.202;2022-08-05T14:58:58;2.67;;;1.90;;
5135;SDS011;2586;48.710;9.202;2022-08-05T15:01:23;8.57;;;1.97;;
5135;SDS011;2586;48.710;9.202;2022-08-05T15:03:49;23.73;;;2.20;;
5135;SDS011;2586;48.710;9.202;2022-08-05T15:06:15;8.43;;;2.27;;
5135;SDS011;2586;48.710;9.202;2022-08-05T15:08:41;4.20;;;1.70;;
5135;SDS011;2586;48.710;9.202;2022-08-05T15:11:08;3.43;;;1.87;;
5135;SDS011;2586;48.710;9.202;2022-08-05T15:13:33;1.97;;;1.87;;
5135;SDS011;2586;48.710;9.202;2022-08-05T15:15:59;6.07;;;1.80;;
5135;SDS011;2586;48.710;9.202;2022-08-05T15:18:26;9.23;;;2.57;;
5135;SDS011;2586;48.710;9.202;2022-08-05T15:20:51;10.70;;;3.00;;
5135;SDS011;2586;48.710;9.202;2022-08-05T15:23:17;8.97;;;3.07;;
5135;SDS011;2586;48.710;9.202;2022-08-05T15:25:43;4.60;;;2.27;;
5135;SDS011;2586;48.710;9.202;2022-08-05T15:28:08;4.47;;;2.07;;
5135;SDS011;2586;48.710;9.202;2022-08-05T15:30:34;7.40;;;2.90;;
5135;SDS011;2586;48.710;9.202;2022-08-05T15:33:03;5.73;;;2.60;;
5135;SDS011;2586;48.710;9.202;2022-08-05T15:35:29;5.03;;;2.63;;
5135;SDS011;2586;48.710;9.202;2022-08-05T15:37:55;2.60;;;2.40;;
5135;SDS011;2586;48.710;9.202;2022-08-05T15:40:21;6.33;;;2.40;;
5135;SDS011;2586;48.710;9.202;2022-08-05T15:42:47;5.83;;;3.03;;
5135;SDS011;2586;48.710;9.202;2022-08-05T15:45:13;3.77;;;2.90;;
5135;SDS011;2586;48.710;9.202;2022-08-05T15:47:39;2.40;;;2.30;;
5135;SDS011;2586;48.710;9.202;2022-08-05T15:50:06;6.60;;;2.43;;
5135;SDS011;2586;48.710;9.202;2022-08-05T15:52:33;4.60;;;2.53;;
5135;SDS011;2586;48.710;9.202;2022-08-05T15:55:02;2.90;;;2.70;;
5135;SDS011;2586;48.710;9.202;2022-08-05T15:57:30;4.20;;;2.80;;